KOGA/OGA METAR and TAF weather

Enter ICAO airport designator
Station Type Date Time Source
KOGA METAR 2019/04/20 18:15 UTC NOAA

KOGA 201815Z AUTO 27008KT 10SM CLR 29/M01 A2977 RMK AO2 T02941015


Station Type Date Time Source
KOGA Decoded METAR 2019/04/20 18:15 UTC NOAA

Ogallala, Searle Field Airport, NE, United States (KOGA) 41-07-11N 101-46-08W
Apr 20, 2019 - 02:15 PM EDT / 2019.04.20 1815 UTC
Wind: from the W (270 degrees) at 9 MPH (8 KT):0
Visibility: 10 mile(s):0
Sky conditions: clear
Temperature: 84.9 F (29.4 C)
Dew Point: 29.3 F (-1.5 C)
Relative Humidity: 13%
Pressure (altimeter): 29.77 in. Hg (1008 hPa)
ob: KOGA 201815Z AUTO 27008KT 10SM CLR 29/M01 A2977 RMK AO2 T02941015
cycle: 18

Station Type Date Time Source
KOGA TAF UTC NOAA

Error!

Example: see airport list